createdAt,value
2023-08-11T00:00:11.191Z,12.40
2023-08-11T00:02:41.112Z,12.40
2023-08-11T00:05:12.346Z,12.30
2023-08-11T00:07:40.709Z,12.30
2023-08-11T00:10:14.932Z,12.30
2023-08-11T00:12:47.411Z,12.30
2023-08-11T00:15:19.719Z,12.30
2023-08-11T00:17:50.928Z,12.30
2023-08-11T00:20:21.394Z,12.20
2023-08-11T00:22:50.495Z,12.20
2023-08-11T00:25:20.555Z,12.20
2023-08-11T00:27:49.592Z,12.20
2023-08-11T00:30:18.074Z,12.20
2023-08-11T00:32:48.066Z,12.10
2023-08-11T00:35:18.476Z,12.10
2023-08-11T00:37:46.618Z,12.10
2023-08-11T00:40:25.928Z,12.00
2023-08-11T00:42:55.230Z,12.00
2023-08-11T00:45:22.683Z,12.00
2023-08-11T00:47:52.117Z,12.00
2023-08-11T00:50:21.698Z,12.00
2023-08-11T00:52:49.417Z,12.00
2023-08-11T00:55:31.675Z,11.90
2023-08-11T01:00:54.077Z,11.90
2023-08-11T01:06:13.191Z,11.90
2023-08-11T01:09:01.420Z,11.80
2023-08-11T01:11:33.550Z,11.80
2023-08-11T01:14:15.253Z,11.80
2023-08-11T01:16:46.619Z,11.80
2023-08-11T01:19:22.173Z,11.80
2023-08-11T01:21:51.184Z,11.80
2023-08-11T01:24:18.823Z,11.70
2023-08-11T01:26:47.861Z,11.70
2023-08-11T01:29:17.056Z,11.70
2023-08-11T01:31:49.575Z,11.70
2023-08-11T01:34:22.006Z,11.60
2023-08-11T01:36:57.619Z,11.70
2023-08-11T01:39:26.534Z,11.60
2023-08-11T01:41:56.208Z,11.60
2023-08-11T01:44:27.000Z,11.60
2023-08-11T01:46:57.156Z,11.60
2023-08-11T01:49:27.887Z,11.60
2023-08-11T01:51:58.354Z,11.60
2023-08-11T01:54:27.931Z,11.50
2023-08-11T01:56:59.179Z,11.50
2023-08-11T01:59:29.064Z,11.50
2023-08-11T02:02:00.070Z,11.50
2023-08-11T02:04:27.917Z,11.50
2023-08-11T02:06:56.844Z,11.40
2023-08-11T02:09:24.095Z,11.40
2023-08-11T02:11:53.169Z,11.40
2023-08-11T02:14:23.241Z,11.40
2023-08-11T02:16:54.342Z,11.40
2023-08-11T02:19:22.337Z,11.30
2023-08-11T02:21:51.862Z,11.30
2023-08-11T02:24:22.387Z,11.30
2023-08-11T02:26:50.198Z,11.30
2023-08-11T02:29:21.742Z,11.30
2023-08-11T02:31:51.321Z,11.30
2023-08-11T02:34:18.518Z,11.20
2023-08-11T02:36:48.553Z,11.20
2023-08-11T02:39:18.676Z,11.20
2023-08-11T02:41:54.941Z,11.20
2023-08-11T02:44:25.204Z,11.20
2023-08-11T02:46:53.935Z,11.20
2023-08-11T02:49:27.477Z,11.20
2023-08-11T02:51:55.961Z,11.20
2023-08-11T02:54:24.157Z,11.10
2023-08-11T02:56:56.217Z,11.10
2023-08-11T02:59:27.116Z,11.10
2023-08-11T03:01:56.637Z,11.10
2023-08-11T03:04:24.523Z,11.10
2023-08-11T03:06:53.349Z,11.10
2023-08-11T03:09:23.269Z,11.10
2023-08-11T03:12:02.938Z,11.10
2023-08-11T03:14:36.007Z,11.00
2023-08-11T03:17:07.923Z,11.00
2023-08-11T03:19:37.124Z,11.00
2023-08-11T03:22:09.848Z,11.00
2023-08-11T03:24:43.003Z,11.00
2023-08-11T03:27:13.602Z,11.00
2023-08-11T03:32:35.308Z,10.90
2023-08-11T03:35:04.034Z,10.90
2023-08-11T03:40:40.071Z,10.80
2023-08-11T03:43:08.164Z,10.80
2023-08-11T03:45:38.066Z,10.80
2023-08-11T03:48:21.021Z,10.80
2023-08-11T03:50:57.163Z,10.80
2023-08-11T03:53:26.063Z,10.80
2023-08-11T03:55:57.269Z,10.70
2023-08-11T03:58:26.416Z,10.80
2023-08-11T04:00:55.460Z,10.70
2023-08-11T04:03:24.799Z,10.70
2023-08-11T04:05:54.306Z,10.70
2023-08-11T04:08:26.647Z,10.70
2023-08-11T04:10:58.902Z,10.70
2023-08-11T04:13:33.461Z,10.70
2023-08-11T04:16:02.214Z,10.70
2023-08-11T04:18:31.489Z,10.80
2023-08-11T04:21:10.869Z,10.70
2023-08-11T04:23:40.462Z,10.80
2023-08-11T04:26:10.232Z,10.80
2023-08-11T04:31:30.012Z,10.90
2023-08-11T04:33:59.954Z,10.90
2023-08-11T04:36:29.174Z,10.90
2023-08-11T04:39:02.280Z,10.90
2023-08-11T04:41:33.003Z,11.00
2023-08-11T04:44:05.447Z,11.00
2023-08-11T04:46:34.404Z,11.00
2023-08-11T04:49:08.874Z,11.10
2023-08-11T04:51:36.539Z,11.20
2023-08-11T04:54:09.176Z,11.30
2023-08-11T04:56:38.080Z,11.50
2023-08-11T04:59:06.358Z,11.70
2023-08-11T05:01:37.362Z,11.80
2023-08-11T05:04:07.857Z,11.90
2023-08-11T05:06:37.976Z,11.90
2023-08-11T05:09:11.221Z,12.60
2023-08-11T05:11:41.249Z,14.00
2023-08-11T05:14:09.601Z,15.60
2023-08-11T05:16:38.970Z,17.10
2023-08-11T05:19:07.034Z,18.50
2023-08-11T05:21:37.343Z,20.00
2023-08-11T05:24:05.631Z,21.50
2023-08-11T05:26:34.247Z,23.10
2023-08-11T05:29:03.124Z,24.60
2023-08-11T05:31:32.982Z,26.10
2023-08-11T05:34:01.210Z,27.50
2023-08-11T05:36:31.027Z,28.90
2023-08-11T05:38:59.202Z,30.00
2023-08-11T05:41:29.623Z,31.10
2023-08-11T05:44:00.204Z,32.00
2023-08-11T05:46:31.295Z,32.90
2023-08-11T05:49:00.291Z,33.80
2023-08-11T05:51:29.958Z,34.60
2023-08-11T05:53:59.712Z,35.30
2023-08-11T05:56:33.211Z,35.90
2023-08-11T05:59:02.556Z,36.60
2023-08-11T06:01:32.181Z,37.10
2023-08-11T06:04:01.344Z,37.70
2023-08-11T06:06:34.141Z,38.10
2023-08-11T06:09:02.706Z,38.60
2023-08-11T06:11:31.410Z,39.00
2023-08-11T06:13:59.808Z,39.50
2023-08-11T06:16:28.253Z,40.00
2023-08-11T06:18:57.181Z,40.50
2023-08-11T06:21:26.271Z,40.80
2023-08-11T06:24:00.079Z,41.20
2023-08-11T06:26:28.608Z,41.70
2023-08-11T06:28:57.608Z,42.10
2023-08-11T06:31:25.887Z,42.50
2023-08-11T06:33:54.569Z,42.90
2023-08-11T06:36:25.607Z,43.10
2023-08-11T06:38:54.506Z,43.50
2023-08-11T06:41:23.593Z,43.80
2023-08-11T06:43:51.670Z,44.10
2023-08-11T06:46:30.806Z,44.30
2023-08-11T06:48:58.862Z,44.50
2023-08-11T06:51:29.198Z,44.80
2023-08-11T06:53:59.646Z,44.90
2023-08-11T06:56:28.307Z,45.10
2023-08-11T06:58:56.670Z,45.30
2023-08-11T07:01:24.779Z,45.50
2023-08-11T07:03:53.121Z,45.70
2023-08-11T07:06:23.338Z,45.90
2023-08-11T07:08:51.538Z,46.20
2023-08-11T07:11:19.766Z,46.30
2023-08-11T07:13:49.871Z,46.50
2023-08-11T07:16:19.194Z,46.60
2023-08-11T07:18:49.968Z,46.70
2023-08-11T07:21:19.013Z,46.80
2023-08-11T07:23:48.543Z,46.90
2023-08-11T07:26:17.596Z,47.00
2023-08-11T07:28:46.507Z,47.10
2023-08-11T07:31:13.300Z,47.20
2023-08-11T07:36:27.901Z,47.40
2023-08-11T07:38:58.029Z,47.50
2023-08-11T07:41:31.237Z,47.60
2023-08-11T07:43:57.904Z,47.70
2023-08-11T07:46:24.598Z,47.70
2023-08-11T07:48:54.583Z,47.60
2023-08-11T07:51:25.418Z,47.20
2023-08-11T07:53:54.464Z,47.10
2023-08-11T07:56:22.610Z,46.90
2023-08-11T07:58:50.809Z,46.70
2023-08-11T08:01:20.532Z,46.50
2023-08-11T08:03:48.658Z,46.50
2023-08-11T08:06:16.873Z,46.40
2023-08-11T08:08:45.398Z,46.40
2023-08-11T08:11:13.671Z,46.40
2023-08-11T08:13:41.549Z,46.40
2023-08-11T08:16:09.731Z,46.60
2023-08-11T08:18:38.149Z,46.40
2023-08-11T08:21:09.556Z,46.00
2023-08-11T08:23:37.824Z,45.50
2023-08-11T08:26:06.761Z,45.50
2023-08-11T08:28:35.042Z,45.50
2023-08-11T08:31:03.545Z,45.40
2023-08-11T08:33:32.011Z,45.40
2023-08-11T08:36:00.438Z,45.60
2023-08-11T08:38:28.604Z,45.80
2023-08-11T08:40:56.906Z,46.00
2023-08-11T08:43:24.993Z,46.10
2023-08-11T08:45:52.708Z,46.20
2023-08-11T08:48:29.633Z,46.00
2023-08-11T08:50:57.563Z,45.40
2023-08-11T08:53:25.283Z,44.70
2023-08-11T08:58:46.237Z,44.30
2023-08-11T09:01:17.152Z,43.60
2023-08-11T09:03:47.200Z,43.30
2023-08-11T09:06:18.132Z,43.20
2023-08-11T09:08:47.856Z,43.40
2023-08-11T09:11:16.825Z,43.70
2023-08-11T09:13:51.193Z,43.50
2023-08-11T09:16:27.523Z,43.00
2023-08-11T09:18:55.876Z,42.20
2023-08-11T09:21:27.757Z,41.80
2023-08-11T09:24:01.747Z,41.80
2023-08-11T09:26:29.666Z,41.70
2023-08-11T09:28:58.350Z,41.70
2023-08-11T09:31:26.628Z,41.90
2023-08-11T09:33:55.713Z,42.30
2023-08-11T09:36:27.432Z,42.60
2023-08-11T09:41:47.051Z,43.10
2023-08-11T09:44:20.832Z,43.30
2023-08-11T09:47:08.453Z,42.80
2023-08-11T09:49:45.911Z,42.20
2023-08-11T09:52:22.220Z,41.90
2023-08-11T09:54:51.204Z,42.00
2023-08-11T09:57:20.652Z,42.20
2023-08-11T09:59:51.838Z,42.30
2023-08-11T10:02:22.643Z,42.40
2023-08-11T10:04:58.462Z,42.20
2023-08-11T10:07:33.334Z,42.20
2023-08-11T10:10:02.629Z,42.20
2023-08-11T10:12:31.532Z,42.30
2023-08-11T10:14:59.798Z,42.30
2023-08-11T10:17:32.048Z,42.10
2023-08-11T10:20:06.207Z,41.90
2023-08-11T10:22:38.758Z,41.70
2023-08-11T10:25:09.543Z,41.60
2023-08-11T10:27:38.627Z,41.60
2023-08-11T10:30:09.276Z,41.40
2023-08-11T10:32:38.451Z,40.70
2023-08-11T10:35:15.595Z,40.20
2023-08-11T10:37:45.571Z,40.00
2023-08-11T10:40:13.484Z,39.50
2023-08-11T10:42:43.141Z,39.00
2023-08-11T10:45:17.503Z,38.20
2023-08-11T10:47:56.000Z,37.60
2023-08-11T10:50:24.673Z,37.40
2023-08-11T10:53:08.265Z,37.10
2023-08-11T10:55:37.404Z,37.10
2023-08-11T10:58:15.360Z,36.90
2023-08-11T11:00:44.323Z,36.70
2023-08-11T11:03:15.491Z,36.60
2023-08-11T11:05:46.893Z,36.30
2023-08-11T11:08:15.373Z,35.70
2023-08-11T11:10:50.645Z,35.20
2023-08-11T11:13:19.817Z,35.00
2023-08-11T11:15:48.558Z,34.80
2023-08-11T11:18:17.429Z,34.80
2023-08-11T11:20:50.626Z,34.90
2023-08-11T11:23:22.006Z,35.10
2023-08-11T11:25:50.930Z,35.10
2023-08-11T11:28:19.093Z,35.00
2023-08-11T11:30:48.292Z,34.90
2023-08-11T11:33:19.283Z,34.90
2023-08-11T11:35:47.490Z,34.70
2023-08-11T11:38:16.711Z,34.10
2023-08-11T11:40:46.015Z,33.20
2023-08-11T11:43:14.037Z,32.10
2023-08-11T11:45:42.765Z,31.50
2023-08-11T11:48:11.413Z,31.10
2023-08-11T11:50:40.606Z,30.70
2023-08-11T11:53:12.109Z,30.50
2023-08-11T11:55:49.536Z,30.50
2023-08-11T11:58:17.877Z,30.60
2023-08-11T12:00:48.866Z,30.50
2023-08-11T12:03:17.022Z,30.10
2023-08-11T12:05:46.664Z,29.60
2023-08-11T12:08:22.355Z,29.40
2023-08-11T12:10:51.958Z,29.30
2023-08-11T12:13:20.131Z,29.30
2023-08-11T12:15:51.763Z,29.40
2023-08-11T12:18:20.678Z,29.30
2023-08-11T12:20:48.908Z,29.20
2023-08-11T12:23:17.056Z,29.00
2023-08-11T12:25:45.324Z,29.00
2023-08-11T12:28:13.645Z,29.00
2023-08-11T12:30:41.711Z,29.00
2023-08-11T12:33:09.855Z,29.10
2023-08-11T12:35:39.620Z,29.00
2023-08-11T12:38:09.863Z,29.00
2023-08-11T12:40:41.658Z,28.90
2023-08-11T12:43:13.755Z,28.80
2023-08-11T12:45:43.805Z,28.80
2023-08-11T12:48:12.658Z,28.80
2023-08-11T12:50:42.846Z,28.70
2023-08-11T12:53:11.203Z,28.70
2023-08-11T12:55:42.281Z,28.60
2023-08-11T12:58:11.676Z,28.70
2023-08-11T13:00:39.794Z,28.60
2023-08-11T13:03:08.131Z,28.60
2023-08-11T13:05:37.792Z,28.40
2023-08-11T13:08:06.000Z,28.30
2023-08-11T13:10:35.345Z,28.20
2023-08-11T13:13:03.609Z,28.20
2023-08-11T13:15:35.109Z,28.10
2023-08-11T13:18:03.392Z,28.00
2023-08-11T13:20:31.312Z,28.00
2023-08-11T13:22:59.898Z,28.00
2023-08-11T13:25:28.269Z,27.90
2023-08-11T13:27:57.048Z,27.90
2023-08-11T13:30:26.420Z,27.90
2023-08-11T13:32:54.851Z,27.70
2023-08-11T13:35:23.593Z,27.70
2023-08-11T13:37:51.772Z,27.70
2023-08-11T13:40:20.989Z,27.70
2023-08-11T13:42:51.262Z,27.60
2023-08-11T13:45:19.346Z,27.60
2023-08-11T13:47:46.624Z,27.40
2023-08-11T13:50:14.949Z,27.30
2023-08-11T13:52:45.423Z,27.30
2023-08-11T13:55:16.946Z,27.30
2023-08-11T13:57:47.239Z,27.30
2023-08-11T14:00:19.965Z,27.30
2023-08-11T14:02:48.021Z,27.20
2023-08-11T14:05:17.362Z,27.20
2023-08-11T14:07:48.731Z,27.10
2023-08-11T14:10:21.813Z,27.00
2023-08-11T14:12:53.742Z,27.00
2023-08-11T14:15:22.816Z,26.90
2023-08-11T14:17:51.124Z,26.90
2023-08-11T14:20:29.561Z,26.90
2023-08-11T14:23:02.303Z,26.90
2023-08-11T14:25:30.105Z,26.90
2023-08-11T14:28:01.456Z,26.80
2023-08-11T14:30:30.484Z,26.70
2023-08-11T14:33:01.479Z,26.70
2023-08-11T14:35:30.792Z,26.70
2023-08-11T14:38:00.128Z,26.70
2023-08-11T14:40:28.262Z,26.70
2023-08-11T14:42:57.224Z,26.80
2023-08-11T14:45:25.621Z,26.70
2023-08-11T14:47:54.245Z,26.70
2023-08-11T14:50:24.656Z,26.70
2023-08-11T14:52:52.896Z,26.70
2023-08-11T14:55:21.392Z,26.70
2023-08-11T14:57:49.878Z,26.70
2023-08-11T15:00:18.287Z,26.70
2023-08-11T15:02:46.678Z,26.70
2023-08-11T15:05:15.260Z,26.70
2023-08-11T15:07:43.804Z,26.70
2023-08-11T15:10:12.357Z,26.70
2023-08-11T15:12:40.790Z,26.60
2023-08-11T15:15:09.796Z,26.60
2023-08-11T15:17:38.461Z,26.60
2023-08-11T15:20:07.684Z,26.70
2023-08-11T15:22:37.498Z,26.70
2023-08-11T15:25:06.961Z,26.60
2023-08-11T15:27:35.377Z,26.60
2023-08-11T15:30:05.815Z,26.50
2023-08-11T15:32:33.478Z,26.50
2023-08-11T15:35:04.907Z,26.50
2023-08-11T15:37:40.400Z,26.50
2023-08-11T15:40:31.778Z,26.50
2023-08-11T15:43:07.726Z,26.40
2023-08-11T15:48:35.574Z,26.40
2023-08-11T15:51:03.075Z,26.40
2023-08-11T15:53:30.994Z,26.30
2023-08-11T15:56:02.837Z,26.30
2023-08-11T15:58:33.499Z,26.40
2023-08-11T16:01:04.113Z,26.30
2023-08-11T16:06:26.751Z,26.30
2023-08-11T16:08:56.496Z,26.30
2023-08-11T16:11:29.809Z,26.40
2023-08-11T16:13:59.248Z,26.40
2023-08-11T16:19:21.054Z,26.50
2023-08-11T16:21:49.731Z,26.50
2023-08-11T16:24:21.776Z,26.50
2023-08-11T16:27:00.991Z,26.50
2023-08-11T16:32:24.884Z,26.50
2023-08-11T16:37:53.725Z,26.60
2023-08-11T16:40:23.808Z,26.60
2023-08-11T16:42:55.059Z,26.60
2023-08-11T16:45:24.960Z,26.60
2023-08-11T16:47:55.260Z,26.60
2023-08-11T16:50:24.143Z,26.60
2023-08-11T16:53:02.183Z,26.60
2023-08-11T16:55:29.882Z,26.60
2023-08-11T16:58:07.947Z,26.50
2023-08-11T17:03:30.871Z,26.50
2023-08-11T17:06:10.620Z,26.50
2023-08-11T17:08:41.416Z,26.40
2023-08-11T17:11:13.441Z,26.30
2023-08-11T17:13:44.943Z,26.30
2023-08-11T17:16:14.596Z,26.30
2023-08-11T17:18:54.482Z,26.20
2023-08-11T17:21:25.269Z,26.10
2023-08-11T17:23:58.707Z,26.00
2023-08-11T17:26:29.662Z,26.00
2023-08-11T17:29:01.195Z,25.90
2023-08-11T17:31:32.703Z,25.80
2023-08-11T17:34:03.541Z,25.70
2023-08-11T17:36:32.048Z,25.60
2023-08-11T17:39:01.427Z,25.50
2023-08-11T17:41:32.055Z,25.40
2023-08-11T17:44:05.295Z,25.30
2023-08-11T17:46:35.852Z,25.20
2023-08-11T17:49:09.994Z,25.10
2023-08-11T17:51:49.030Z,25.00
2023-08-11T17:54:22.091Z,24.90
2023-08-11T17:56:56.745Z,24.90
2023-08-11T17:59:28.714Z,24.80
2023-08-11T18:02:04.289Z,24.70
2023-08-11T18:04:38.121Z,24.60
2023-08-11T18:07:10.209Z,24.40
2023-08-11T18:09:42.846Z,24.40
2023-08-11T18:12:16.885Z,24.30
2023-08-11T18:15:01.952Z,24.20
2023-08-11T18:17:30.386Z,24.10
2023-08-11T18:19:59.233Z,24.00
2023-08-11T18:22:27.500Z,23.80
2023-08-11T18:24:57.414Z,23.70
2023-08-11T18:27:25.705Z,23.60
2023-08-11T18:29:56.902Z,23.40
2023-08-11T18:32:28.507Z,23.30
2023-08-11T18:34:58.764Z,23.10
2023-08-11T18:37:31.794Z,23.00
2023-08-11T18:39:59.843Z,22.90
2023-08-11T18:42:29.103Z,22.70
2023-08-11T18:44:58.130Z,22.60
2023-08-11T18:47:27.113Z,22.50
2023-08-11T18:50:00.651Z,22.30
2023-08-11T18:52:33.534Z,22.20
2023-08-11T18:55:02.134Z,22.10
2023-08-11T18:57:30.296Z,22.00
2023-08-11T19:00:03.483Z,21.90
2023-08-11T19:02:33.552Z,21.80
2023-08-11T19:05:01.304Z,21.70
2023-08-11T19:07:28.805Z,21.50
2023-08-11T19:10:02.168Z,21.40
2023-08-11T19:12:33.715Z,21.30
2023-08-11T19:15:02.776Z,21.20
2023-08-11T19:17:31.975Z,21.10
2023-08-11T19:20:01.647Z,21.00
2023-08-11T19:22:29.739Z,20.90
2023-08-11T19:24:59.162Z,20.80
2023-08-11T19:27:31.491Z,20.70
2023-08-11T19:30:03.876Z,20.60
2023-08-11T19:32:36.962Z,20.50
2023-08-11T19:35:05.996Z,20.40
2023-08-11T19:37:38.531Z,20.30
2023-08-11T19:40:06.967Z,20.20
2023-08-11T19:42:39.479Z,20.00
2023-08-11T19:48:03.708Z,19.90
2023-08-11T19:50:35.654Z,19.70
2023-08-11T19:53:05.462Z,19.70
2023-08-11T19:55:36.633Z,19.60
2023-08-11T19:58:08.525Z,19.50
2023-08-11T20:00:37.750Z,19.50
2023-08-11T20:03:09.347Z,19.40
2023-08-11T20:05:46.646Z,19.40
2023-08-11T20:08:15.504Z,19.30
2023-08-11T20:10:47.990Z,19.20
2023-08-11T20:13:17.600Z,19.20
2023-08-11T20:15:46.247Z,19.10
2023-08-11T20:18:14.880Z,19.10
2023-08-11T20:20:46.766Z,19.10
2023-08-11T20:23:15.087Z,19.00
2023-08-11T20:25:43.741Z,19.00
2023-08-11T20:28:12.686Z,18.90
2023-08-11T20:30:43.235Z,18.80
2023-08-11T20:33:13.475Z,18.80
2023-08-11T20:35:46.472Z,18.70
2023-08-11T20:38:15.123Z,18.70
2023-08-11T20:40:43.289Z,18.60
2023-08-11T20:43:13.679Z,18.60
2023-08-11T20:45:43.030Z,18.50
2023-08-11T20:48:12.016Z,18.40
2023-08-11T20:50:40.781Z,18.40
2023-08-11T20:53:09.926Z,18.40
2023-08-11T20:55:38.099Z,18.30
2023-08-11T20:58:08.059Z,18.30
2023-08-11T21:00:36.617Z,18.20
2023-08-11T21:03:06.189Z,18.20
2023-08-11T21:05:35.521Z,18.10
2023-08-11T21:08:05.535Z,18.00
2023-08-11T21:10:34.323Z,18.00
2023-08-11T21:13:04.186Z,17.90
2023-08-11T21:15:33.050Z,17.90
2023-08-11T21:18:01.463Z,17.80
2023-08-11T21:20:29.570Z,17.80
2023-08-11T21:22:57.706Z,17.80
2023-08-11T21:25:27.057Z,17.70
2023-08-11T21:27:55.386Z,17.70
2023-08-11T21:30:25.253Z,17.60
2023-08-11T21:32:54.020Z,17.60
2023-08-11T21:35:22.339Z,17.50
2023-08-11T21:37:50.840Z,17.50
2023-08-11T21:40:21.366Z,17.50
2023-08-11T21:42:50.047Z,17.40
2023-08-11T21:45:19.961Z,17.40
2023-08-11T21:47:48.851Z,17.40
2023-08-11T21:50:17.049Z,17.30
2023-08-11T21:52:46.634Z,17.30
2023-08-11T21:55:15.137Z,17.20
2023-08-11T21:57:46.432Z,17.20
2023-08-11T22:00:15.526Z,17.20
2023-08-11T22:02:43.916Z,17.10
2023-08-11T22:05:34.092Z,17.10
2023-08-11T22:08:02.711Z,17.00
2023-08-11T22:10:31.931Z,17.00
2023-08-11T22:13:00.293Z,17.00
2023-08-11T22:15:30.224Z,16.90
2023-08-11T22:18:00.842Z,16.90
2023-08-11T22:20:30.056Z,16.90
2023-08-11T22:22:58.688Z,16.80
2023-08-11T22:25:28.147Z,16.80
2023-08-11T22:27:56.423Z,16.70
2023-08-11T22:30:27.003Z,16.70
2023-08-11T22:32:54.996Z,16.70
2023-08-11T22:35:23.948Z,16.70
2023-08-11T22:37:52.704Z,16.60
2023-08-11T22:40:21.074Z,16.60
2023-08-11T22:42:49.514Z,16.50
2023-08-11T22:45:18.702Z,16.50
2023-08-11T22:47:46.916Z,16.50
2023-08-11T22:50:15.911Z,16.40
2023-08-11T22:52:44.776Z,16.40
2023-08-11T22:55:13.114Z,16.40
2023-08-11T22:57:41.344Z,16.30
2023-08-11T23:00:11.926Z,16.30
2023-08-11T23:02:41.029Z,16.30
2023-08-11T23:05:11.668Z,16.30
2023-08-11T23:07:40.392Z,16.20
2023-08-11T23:10:08.848Z,16.20
2023-08-11T23:12:37.553Z,16.20
2023-08-11T23:15:06.894Z,16.20
2023-08-11T23:17:35.404Z,16.10
2023-08-11T23:20:05.245Z,16.10
2023-08-11T23:22:36.378Z,16.00
2023-08-11T23:25:05.731Z,16.00
2023-08-11T23:27:34.635Z,16.00
2023-08-11T23:30:02.902Z,16.00
2023-08-11T23:32:31.883Z,16.00
2023-08-11T23:35:04.831Z,15.90
2023-08-11T23:37:32.794Z,15.90
2023-08-11T23:40:00.679Z,15.90
2023-08-11T23:42:29.102Z,15.80
2023-08-11T23:44:59.240Z,15.80
2023-08-11T23:47:30.188Z,15.80
2023-08-11T23:49:59.709Z,15.70
2023-08-11T23:52:28.608Z,15.70
2023-08-11T23:54:57.134Z,15.70
2023-08-11T23:57:28.023Z,15.60
2023-08-11T23:59:59.802Z,15.60
